sim
Sign-in with your pilot id or email,
or register
Callsign
Passwort

Schedule Details

Flight Number: EWG2065
Departure: Bremen Airport (EDDW) at 11:30
Arrival: Stuttgart Airport (EDDS) at 12:45
Route: Eurowings Passenger Schedule. Enter filed route here before submitting Pirep.

Weather Information
Getting current METAR information for EDDW 101850Z 30006KT 9999 FEW027 14/11 Q1016 NOSIG
Getting current METAR information for EDDS 101850Z 30009KT CAVOK 21/11 Q1017 NOSIG

Schedule Frequency

Route Map